sensor_id;sensor_type;location;lat;lon;timestamp;P1;durP1;ratioP1;P2;durP2;ratioP2
24335;SDS011;33098;52.400;16.880;2022-07-19T00:01:07;6.80;;;3.90;;
24335;SDS011;33098;52.400;16.880;2022-07-19T00:03:34;6.90;;;4.00;;
24335;SDS011;33098;52.400;16.880;2022-07-19T00:06:00;7.40;;;4.10;;
24335;SDS011;33098;52.400;16.880;2022-07-19T00:08:27;5.60;;;3.70;;
24335;SDS011;33098;52.400;16.880;2022-07-19T00:10:54;7.40;;;3.80;;
24335;SDS011;33098;52.400;16.880;2022-07-19T00:13:21;4.60;;;3.80;;
24335;SDS011;33098;52.400;16.880;2022-07-19T00:15:48;5.70;;;3.60;;
24335;SDS011;33098;52.400;16.880;2022-07-19T00:18:15;7.10;;;3.60;;
24335;SDS011;33098;52.400;16.880;2022-07-19T00:20:45;5.10;;;3.90;;
24335;SDS011;33098;52.400;16.880;2022-07-19T00:23:11;5.00;;;3.60;;
24335;SDS011;33098;52.400;16.880;2022-07-19T00:25:38;4.50;;;3.40;;
24335;SDS011;33098;52.400;16.880;2022-07-19T00:28:04;10.50;;;3.70;;
24335;SDS011;33098;52.400;16.880;2022-07-19T00:30:31;8.70;;;3.80;;
24335;SDS011;33098;52.400;16.880;2022-07-19T00:32:58;6.20;;;3.70;;
24335;SDS011;33098;52.400;16.880;2022-07-19T00:35:24;6.30;;;3.10;;
24335;SDS011;33098;52.400;16.880;2022-07-19T00:37:51;9.70;;;3.70;;
24335;SDS011;33098;52.400;16.880;2022-07-19T00:40:21;8.70;;;3.60;;
24335;SDS011;33098;52.400;16.880;2022-07-19T00:42:50;6.50;;;3.60;;
24335;SDS011;33098;52.400;16.880;2022-07-19T00:45:19;5.00;;;3.30;;
24335;SDS011;33098;52.400;16.880;2022-07-19T00:47:46;7.80;;;3.80;;
24335;SDS011;33098;52.400;16.880;2022-07-19T00:50:13;4.40;;;3.10;;
24335;SDS011;33098;52.400;16.880;2022-07-19T00:52:39;6.30;;;3.70;;
24335;SDS011;33098;52.400;16.880;2022-07-19T00:55:09;6.40;;;3.70;;
24335;SDS011;33098;52.400;16.880;2022-07-19T00:57:36;7.70;;;3.60;;
24335;SDS011;33098;52.400;16.880;2022-07-19T01:00:07;4.80;;;3.30;;
24335;SDS011;33098;52.400;16.880;2022-07-19T01:02:36;9.20;;;3.20;;
24335;SDS011;33098;52.400;16.880;2022-07-19T01:05:05;4.90;;;3.30;;
24335;SDS011;33098;52.400;16.880;2022-07-19T01:07:34;8.30;;;3.20;;
24335;SDS011;33098;52.400;16.880;2022-07-19T01:10:02;7.90;;;3.60;;
24335;SDS011;33098;52.400;16.880;2022-07-19T01:12:33;8.80;;;3.80;;
24335;SDS011;33098;52.400;16.880;2022-07-19T01:15:01;8.70;;;3.40;;
24335;SDS011;33098;52.400;16.880;2022-07-19T01:17:31;6.00;;;3.10;;
24335;SDS011;33098;52.400;16.880;2022-07-19T01:19:58;5.10;;;3.30;;
24335;SDS011;33098;52.400;16.880;2022-07-19T01:22:25;7.70;;;3.30;;
24335;SDS011;33098;52.400;16.880;2022-07-19T01:24:51;8.50;;;3.40;;
24335;SDS011;33098;52.400;16.880;2022-07-19T01:27:19;6.20;;;3.10;;
24335;SDS011;33098;52.400;16.880;2022-07-19T01:29:45;4.70;;;3.50;;
24335;SDS011;33098;52.400;16.880;2022-07-19T01:32:12;6.60;;;3.40;;
24335;SDS011;33098;52.400;16.880;2022-07-19T01:34:38;5.60;;;3.30;;
24335;SDS011;33098;52.400;16.880;2022-07-19T01:37:05;7.60;;;3.40;;
24335;SDS011;33098;52.400;16.880;2022-07-19T01:39:31;7.70;;;3.50;;
24335;SDS011;33098;52.400;16.880;2022-07-19T01:41:58;6.20;;;3.40;;
24335;SDS011;33098;52.400;16.880;2022-07-19T01:44:25;10.30;;;3.70;;
24335;SDS011;33098;52.400;16.880;2022-07-19T01:46:51;6.90;;;3.50;;
24335;SDS011;33098;52.400;16.880;2022-07-19T01:49:18;7.40;;;3.70;;
24335;SDS011;33098;52.400;16.880;2022-07-19T01:51:44;7.10;;;3.40;;
24335;SDS011;33098;52.400;16.880;2022-07-19T01:54:11;5.80;;;3.50;;
24335;SDS011;33098;52.400;16.880;2022-07-19T01:56:41;5.40;;;3.40;;
24335;SDS011;33098;52.400;16.880;2022-07-19T01:59:11;9.80;;;3.70;;
24335;SDS011;33098;52.400;16.880;2022-07-19T02:01:37;7.70;;;3.60;;
24335;SDS011;33098;52.400;16.880;2022-07-19T02:04:04;4.00;;;3.10;;
24335;SDS011;33098;52.400;16.880;2022-07-19T02:06:30;6.10;;;3.70;;
24335;SDS011;33098;52.400;16.880;2022-07-19T02:08:57;7.30;;;3.60;;
24335;SDS011;33098;52.400;16.880;2022-07-19T02:11:23;6.40;;;3.30;;
24335;SDS011;33098;52.400;16.880;2022-07-19T02:14:02;7.20;;;3.90;;
24335;SDS011;33098;52.400;16.880;2022-07-19T02:16:29;6.30;;;3.60;;
24335;SDS011;33098;52.400;16.880;2022-07-19T02:18:56;11.10;;;3.70;;
24335;SDS011;33098;52.400;16.880;2022-07-19T02:21:23;7.40;;;3.80;;
24335;SDS011;33098;52.400;16.880;2022-07-19T02:23:49;7.30;;;3.90;;
24335;SDS011;33098;52.400;16.880;2022-07-19T02:26:16;7.70;;;3.90;;
24335;SDS011;33098;52.400;16.880;2022-07-19T02:28:43;6.80;;;3.60;;
24335;SDS011;33098;52.400;16.880;2022-07-19T02:31:09;7.60;;;3.50;;
24335;SDS011;33098;52.400;16.880;2022-07-19T02:33:36;9.60;;;3.90;;
24335;SDS011;33098;52.400;16.880;2022-07-19T02:36:02;4.90;;;3.70;;
24335;SDS011;33098;52.400;16.880;2022-07-19T02:38:30;7.80;;;3.60;;
24335;SDS011;33098;52.400;16.880;2022-07-19T02:40:57;6.80;;;3.80;;
24335;SDS011;33098;52.400;16.880;2022-07-19T02:43:24;8.80;;;4.10;;
24335;SDS011;33098;52.400;16.880;2022-07-19T02:45:50;7.70;;;4.10;;
24335;SDS011;33098;52.400;16.880;2022-07-19T02:48:17;9.60;;;4.10;;
24335;SDS011;33098;52.400;16.880;2022-07-19T02:50:44;5.40;;;3.80;;
24335;SDS011;33098;52.400;16.880;2022-07-19T02:53:13;7.30;;;3.80;;
24335;SDS011;33098;52.400;16.880;2022-07-19T02:55:40;7.30;;;3.90;;
24335;SDS011;33098;52.400;16.880;2022-07-19T02:58:07;7.50;;;3.90;;
24335;SDS011;33098;52.400;16.880;2022-07-19T03:00:33;5.10;;;3.80;;
24335;SDS011;33098;52.400;16.880;2022-07-19T03:03:00;8.70;;;3.90;;
24335;SDS011;33098;52.400;16.880;2022-07-19T03:05:47;7.60;;;3.80;;
24335;SDS011;33098;52.400;16.880;2022-07-19T03:08:15;6.40;;;4.30;;
24335;SDS011;33098;52.400;16.880;2022-07-19T03:10:41;8.20;;;4.10;;
24335;SDS011;33098;52.400;16.880;2022-07-19T03:13:09;6.50;;;3.80;;
24335;SDS011;33098;52.400;16.880;2022-07-19T03:15:36;6.50;;;4.50;;
24335;SDS011;33098;52.400;16.880;2022-07-19T03:18:03;7.20;;;4.30;;
24335;SDS011;33098;52.400;16.880;2022-07-19T03:20:30;6.50;;;4.30;;
24335;SDS011;33098;52.400;16.880;2022-07-19T03:22:57;8.10;;;4.50;;
24335;SDS011;33098;52.400;16.880;2022-07-19T03:25:24;7.50;;;4.40;;
24335;SDS011;33098;52.400;16.880;2022-07-19T03:27:52;9.10;;;4.60;;
24335;SDS011;33098;52.400;16.880;2022-07-19T03:30:19;8.40;;;4.60;;
24335;SDS011;33098;52.400;16.880;2022-07-19T03:32:46;7.80;;;4.30;;
24335;SDS011;33098;52.400;16.880;2022-07-19T03:35:13;7.20;;;4.00;;
24335;SDS011;33098;52.400;16.880;2022-07-19T03:37:40;7.20;;;4.30;;
24335;SDS011;33098;52.400;16.880;2022-07-19T03:40:07;11.30;;;4.70;;
24335;SDS011;33098;52.400;16.880;2022-07-19T03:42:34;8.90;;;4.40;;
24335;SDS011;33098;52.400;16.880;2022-07-19T03:45:03;10.10;;;4.20;;
24335;SDS011;33098;52.400;16.880;2022-07-19T03:47:30;8.20;;;4.60;;
24335;SDS011;33098;52.400;16.880;2022-07-19T03:49:57;6.30;;;4.50;;
24335;SDS011;33098;52.400;16.880;2022-07-19T03:52:24;7.80;;;4.40;;
24335;SDS011;33098;52.400;16.880;2022-07-19T03:54:51;8.10;;;4.80;;
24335;SDS011;33098;52.400;16.880;2022-07-19T03:57:17;9.40;;;4.70;;
24335;SDS011;33098;52.400;16.880;2022-07-19T03:59:44;9.40;;;4.40;;
24335;SDS011;33098;52.400;16.880;2022-07-19T04:02:11;9.40;;;4.90;;
24335;SDS011;33098;52.400;16.880;2022-07-19T04:04:37;9.50;;;4.90;;
24335;SDS011;33098;52.400;16.880;2022-07-19T04:07:03;9.30;;;4.80;;
24335;SDS011;33098;52.400;16.880;2022-07-19T04:09:30;8.20;;;4.90;;
24335;SDS011;33098;52.400;16.880;2022-07-19T04:11:56;7.60;;;4.60;;
24335;SDS011;33098;52.400;16.880;2022-07-19T04:14:23;9.60;;;4.90;;
24335;SDS011;33098;52.400;16.880;2022-07-19T04:16:51;8.70;;;4.70;;
24335;SDS011;33098;52.400;16.880;2022-07-19T04:19:17;12.70;;;5.30;;
24335;SDS011;33098;52.400;16.880;2022-07-19T04:21:47;8.60;;;4.70;;
24335;SDS011;33098;52.400;16.880;2022-07-19T04:24:13;7.90;;;4.50;;
24335;SDS011;33098;52.400;16.880;2022-07-19T04:26:39;9.40;;;4.70;;
24335;SDS011;33098;52.400;16.880;2022-07-19T04:29:06;9.50;;;4.80;;
24335;SDS011;33098;52.400;16.880;2022-07-19T04:31:33;7.80;;;4.80;;
24335;SDS011;33098;52.400;16.880;2022-07-19T04:33:59;7.60;;;4.90;;
24335;SDS011;33098;52.400;16.880;2022-07-19T04:36:26;8.90;;;5.00;;
24335;SDS011;33098;52.400;16.880;2022-07-19T04:38:52;11.10;;;5.40;;
24335;SDS011;33098;52.400;16.880;2022-07-19T04:41:19;10.40;;;5.50;;
24335;SDS011;33098;52.400;16.880;2022-07-19T04:43:45;7.70;;;5.00;;
24335;SDS011;33098;52.400;16.880;2022-07-19T04:46:12;9.50;;;5.20;;
24335;SDS011;33098;52.400;16.880;2022-07-19T04:48:38;8.30;;;5.70;;
24335;SDS011;33098;52.400;16.880;2022-07-19T04:51:07;8.50;;;5.20;;
24335;SDS011;33098;52.400;16.880;2022-07-19T04:53:33;7.30;;;5.50;;
24335;SDS011;33098;52.400;16.880;2022-07-19T04:56:00;9.30;;;6.10;;
24335;SDS011;33098;52.400;16.880;2022-07-19T04:58:27;9.30;;;5.70;;
24335;SDS011;33098;52.400;16.880;2022-07-19T05:00:54;9.60;;;5.70;;
24335;SDS011;33098;52.400;16.880;2022-07-19T05:03:20;9.80;;;6.20;;
24335;SDS011;33098;52.400;16.880;2022-07-19T05:05:50;13.50;;;6.20;;
24335;SDS011;33098;52.400;16.880;2022-07-19T05:08:18;12.00;;;6.50;;
24335;SDS011;33098;52.400;16.880;2022-07-19T05:13:14;11.40;;;6.40;;
24335;SDS011;33098;52.400;16.880;2022-07-19T05:15:41;8.70;;;6.40;;
24335;SDS011;33098;52.400;16.880;2022-07-19T05:18:08;10.80;;;6.50;;
24335;SDS011;33098;52.400;16.880;2022-07-19T05:20:34;10.90;;;5.70;;
24335;SDS011;33098;52.400;16.880;2022-07-19T05:23:01;11.10;;;6.00;;
24335;SDS011;33098;52.400;16.880;2022-07-19T05:25:27;10.00;;;5.70;;
24335;SDS011;33098;52.400;16.880;2022-07-19T05:27:54;10.40;;;5.90;;
24335;SDS011;33098;52.400;16.880;2022-07-19T05:30:22;9.00;;;5.40;;
24335;SDS011;33098;52.400;16.880;2022-07-19T05:32:49;8.70;;;5.20;;
24335;SDS011;33098;52.400;16.880;2022-07-19T05:35:16;9.60;;;4.80;;
24335;SDS011;33098;52.400;16.880;2022-07-19T05:37:42;7.60;;;4.90;;
24335;SDS011;33098;52.400;16.880;2022-07-19T05:40:09;8.60;;;5.30;;
24335;SDS011;33098;52.400;16.880;2022-07-19T05:42:36;10.10;;;5.50;;
24335;SDS011;33098;52.400;16.880;2022-07-19T05:45:02;9.80;;;5.10;;
24335;SDS011;33098;52.400;16.880;2022-07-19T05:47:29;9.50;;;5.10;;
24335;SDS011;33098;52.400;16.880;2022-07-19T05:49:56;11.20;;;5.30;;
24335;SDS011;33098;52.400;16.880;2022-07-19T05:52:24;9.40;;;5.10;;
24335;SDS011;33098;52.400;16.880;2022-07-19T05:54:51;8.90;;;5.20;;
24335;SDS011;33098;52.400;16.880;2022-07-19T05:57:17;8.50;;;5.10;;
24335;SDS011;33098;52.400;16.880;2022-07-19T05:59:44;7.20;;;5.40;;
24335;SDS011;33098;52.400;16.880;2022-07-19T06:02:13;9.00;;;4.70;;
24335;SDS011;33098;52.400;16.880;2022-07-19T06:04:40;6.20;;;4.60;;
24335;SDS011;33098;52.400;16.880;2022-07-19T06:07:07;10.70;;;4.90;;
24335;SDS011;33098;52.400;16.880;2022-07-19T06:09:33;11.10;;;4.60;;
24335;SDS011;33098;52.400;16.880;2022-07-19T06:12:00;8.70;;;5.10;;
24335;SDS011;33098;52.400;16.880;2022-07-19T06:14:26;10.10;;;5.10;;
24335;SDS011;33098;52.400;16.880;2022-07-19T06:16:53;10.00;;;4.70;;
24335;SDS011;33098;52.400;16.880;2022-07-19T06:19:20;8.50;;;4.50;;
24335;SDS011;33098;52.400;16.880;2022-07-19T06:21:46;11.70;;;5.10;;
24335;SDS011;33098;52.400;16.880;2022-07-19T06:24:13;9.30;;;4.20;;
24335;SDS011;33098;52.400;16.880;2022-07-19T06:26:40;8.80;;;4.60;;
24335;SDS011;33098;52.400;16.880;2022-07-19T06:29:06;5.80;;;4.10;;
24335;SDS011;33098;52.400;16.880;2022-07-19T06:31:35;8.60;;;4.10;;
24335;SDS011;33098;52.400;16.880;2022-07-19T06:34:01;6.40;;;4.30;;
24335;SDS011;33098;52.400;16.880;2022-07-19T06:36:28;8.10;;;4.00;;
24335;SDS011;33098;52.400;16.880;2022-07-19T06:38:55;8.60;;;4.20;;
24335;SDS011;33098;52.400;16.880;2022-07-19T06:41:21;6.60;;;4.20;;
24335;SDS011;33098;52.400;16.880;2022-07-19T06:43:48;5.70;;;3.70;;
24335;SDS011;33098;52.400;16.880;2022-07-19T06:46:14;7.50;;;4.30;;
24335;SDS011;33098;52.400;16.880;2022-07-19T06:48:41;7.20;;;4.00;;
24335;SDS011;33098;52.400;16.880;2022-07-19T06:51:07;7.40;;;3.90;;
24335;SDS011;33098;52.400;16.880;2022-07-19T06:53:34;5.10;;;3.80;;
24335;SDS011;33098;52.400;16.880;2022-07-19T06:56:01;10.20;;;4.10;;
24335;SDS011;33098;52.400;16.880;2022-07-19T06:58:28;11.10;;;4.20;;
24335;SDS011;33098;52.400;16.880;2022-07-19T07:00:55;8.50;;;4.20;;
24335;SDS011;33098;52.400;16.880;2022-07-19T07:03:22;7.40;;;4.50;;
24335;SDS011;33098;52.400;16.880;2022-07-19T07:05:49;8.10;;;3.80;;
24335;SDS011;33098;52.400;16.880;2022-07-19T07:08:18;6.00;;;4.00;;
24335;SDS011;33098;52.400;16.880;2022-07-19T07:10:47;5.80;;;3.50;;
24335;SDS011;33098;52.400;16.880;2022-07-19T07:13:16;9.30;;;3.60;;
24335;SDS011;33098;52.400;16.880;2022-07-19T07:15:42;5.60;;;3.60;;
24335;SDS011;33098;52.400;16.880;2022-07-19T07:18:10;6.60;;;3.60;;
24335;SDS011;33098;52.400;16.880;2022-07-19T07:20:39;7.20;;;3.70;;
24335;SDS011;33098;52.400;16.880;2022-07-19T07:23:06;7.70;;;3.80;;
24335;SDS011;33098;52.400;16.880;2022-07-19T07:25:32;7.50;;;3.40;;
24335;SDS011;33098;52.400;16.880;2022-07-19T07:27:59;7.10;;;3.40;;
24335;SDS011;33098;52.400;16.880;2022-07-19T07:30:25;6.40;;;3.40;;
24335;SDS011;33098;52.400;16.880;2022-07-19T07:32:52;5.10;;;3.20;;
24335;SDS011;33098;52.400;16.880;2022-07-19T07:35:18;8.20;;;3.00;;
24335;SDS011;33098;52.400;16.880;2022-07-19T07:37:45;6.50;;;3.20;;
24335;SDS011;33098;52.400;16.880;2022-07-19T07:40:11;5.10;;;3.20;;
24335;SDS011;33098;52.400;16.880;2022-07-19T07:42:38;8.00;;;3.50;;
24335;SDS011;33098;52.400;16.880;2022-07-19T07:45:05;5.70;;;3.20;;
24335;SDS011;33098;52.400;16.880;2022-07-19T07:47:33;7.70;;;3.30;;
24335;SDS011;33098;52.400;16.880;2022-07-19T07:50:01;10.60;;;3.60;;
24335;SDS011;33098;52.400;16.880;2022-07-19T07:52:27;6.30;;;3.30;;
24335;SDS011;33098;52.400;16.880;2022-07-19T07:54:54;9.60;;;3.20;;
24335;SDS011;33098;52.400;16.880;2022-07-19T07:57:20;7.40;;;2.90;;
24335;SDS011;33098;52.400;16.880;2022-07-19T07:59:47;5.30;;;3.20;;
24335;SDS011;33098;52.400;16.880;2022-07-19T08:02:14;6.40;;;2.80;;
24335;SDS011;33098;52.400;16.880;2022-07-19T08:04:40;5.20;;;3.00;;
24335;SDS011;33098;52.400;16.880;2022-07-19T08:07:07;7.90;;;2.90;;
24335;SDS011;33098;52.400;16.880;2022-07-19T08:09:33;5.40;;;3.30;;
24335;SDS011;33098;52.400;16.880;2022-07-19T08:12:00;6.10;;;3.40;;
24335;SDS011;33098;52.400;16.880;2022-07-19T08:14:30;5.90;;;2.80;;
24335;SDS011;33098;52.400;16.880;2022-07-19T08:16:56;4.20;;;2.80;;
24335;SDS011;33098;52.400;16.880;2022-07-19T08:19:23;7.20;;;2.90;;
24335;SDS011;33098;52.400;16.880;2022-07-19T08:21:50;6.90;;;2.90;;
24335;SDS011;33098;52.400;16.880;2022-07-19T08:24:16;6.10;;;2.70;;
24335;SDS011;33098;52.400;16.880;2022-07-19T08:26:43;6.10;;;2.70;;
24335;SDS011;33098;52.400;16.880;2022-07-19T08:29:09;3.30;;;2.30;;
24335;SDS011;33098;52.400;16.880;2022-07-19T08:31:36;4.60;;;2.70;;
24335;SDS011;33098;52.400;16.880;2022-07-19T08:34:02;4.50;;;2.70;;
24335;SDS011;33098;52.400;16.880;2022-07-19T08:36:29;5.90;;;3.10;;
24335;SDS011;33098;52.400;16.880;2022-07-19T08:38:56;5.00;;;2.80;;
24335;SDS011;33098;52.400;16.880;2022-07-19T08:41:25;9.60;;;2.50;;
24335;SDS011;33098;52.400;16.880;2022-07-19T08:43:52;7.60;;;2.50;;
24335;SDS011;33098;52.400;16.880;2022-07-19T08:46:19;3.10;;;2.20;;
24335;SDS011;33098;52.400;16.880;2022-07-19T08:48:47;4.20;;;2.80;;
24335;SDS011;33098;52.400;16.880;2022-07-19T08:51:19;4.70;;;2.40;;
24335;SDS011;33098;52.400;16.880;2022-07-19T08:53:50;5.00;;;2.50;;
24335;SDS011;33098;52.400;16.880;2022-07-19T08:56:18;3.80;;;2.30;;
24335;SDS011;33098;52.400;16.880;2022-07-19T08:59:04;4.30;;;2.60;;
24335;SDS011;33098;52.400;16.880;2022-07-19T09:01:32;5.20;;;2.60;;
24335;SDS011;33098;52.400;16.880;2022-07-19T09:04:03;3.40;;;2.40;;
24335;SDS011;33098;52.400;16.880;2022-07-19T09:06:48;7.60;;;2.80;;
24335;SDS011;33098;52.400;16.880;2022-07-19T09:09:18;3.10;;;2.30;;
24335;SDS011;33098;52.400;16.880;2022-07-19T09:11:53;4.00;;;2.30;;
24335;SDS011;33098;52.400;16.880;2022-07-19T09:14:22;4.30;;;2.50;;
24335;SDS011;33098;52.400;16.880;2022-07-19T09:19:27;5.00;;;2.70;;
24335;SDS011;33098;52.400;16.880;2022-07-19T09:22:06;4.60;;;2.70;;
24335;SDS011;33098;52.400;16.880;2022-07-19T09:24:36;5.50;;;2.40;;
24335;SDS011;33098;52.400;16.880;2022-07-19T09:27:07;4.50;;;2.50;;
24335;SDS011;33098;52.400;16.880;2022-07-19T09:29:39;4.20;;;2.50;;
24335;SDS011;33098;52.400;16.880;2022-07-19T09:32:09;7.00;;;3.10;;
24335;SDS011;33098;52.400;16.880;2022-07-19T09:34:57;6.70;;;2.60;;
24335;SDS011;33098;52.400;16.880;2022-07-19T09:37:26;6.80;;;2.90;;
24335;SDS011;33098;52.400;16.880;2022-07-19T09:40:05;3.40;;;2.30;;
24335;SDS011;33098;52.400;16.880;2022-07-19T09:42:37;6.50;;;2.80;;
24335;SDS011;33098;52.400;16.880;2022-07-19T09:45:06;6.40;;;2.80;;
24335;SDS011;33098;52.400;16.880;2022-07-19T09:47:38;3.30;;;2.60;;
24335;SDS011;33098;52.400;16.880;2022-07-19T09:50:07;4.80;;;2.80;;
24335;SDS011;33098;52.400;16.880;2022-07-19T09:52:38;4.30;;;2.40;;
24335;SDS011;33098;52.400;16.880;2022-07-19T09:55:06;4.50;;;2.60;;
24335;SDS011;33098;52.400;16.880;2022-07-19T09:57:35;5.80;;;2.50;;
24335;SDS011;33098;52.400;16.880;2022-07-19T10:00:05;6.70;;;2.40;;
24335;SDS011;33098;52.400;16.880;2022-07-19T10:02:36;7.80;;;2.50;;
24335;SDS011;33098;52.400;16.880;2022-07-19T10:05:05;4.00;;;2.20;;
24335;SDS011;33098;52.400;16.880;2022-07-19T10:07:34;5.70;;;2.40;;
24335;SDS011;33098;52.400;16.880;2022-07-19T10:10:04;4.80;;;2.30;;
24335;SDS011;33098;52.400;16.880;2022-07-19T10:12:33;4.20;;;2.20;;
24335;SDS011;33098;52.400;16.880;2022-07-19T10:14:59;3.40;;;2.20;;
24335;SDS011;33098;52.400;16.880;2022-07-19T10:17:26;3.40;;;2.30;;
24335;SDS011;33098;52.400;16.880;2022-07-19T10:19:58;5.10;;;2.30;;
24335;SDS011;33098;52.400;16.880;2022-07-19T10:22:26;4.00;;;2.40;;
24335;SDS011;33098;52.400;16.880;2022-07-19T10:24:54;7.90;;;2.40;;
24335;SDS011;33098;52.400;16.880;2022-07-19T10:29:52;7.50;;;2.40;;
24335;SDS011;33098;52.400;16.880;2022-07-19T10:32:36;4.00;;;2.20;;
24335;SDS011;33098;52.400;16.880;2022-07-19T10:37:55;4.50;;;2.10;;
24335;SDS011;33098;52.400;16.880;2022-07-19T10:40:52;3.30;;;2.20;;
24335;SDS011;33098;52.400;16.880;2022-07-19T10:43:22;3.60;;;2.40;;
24335;SDS011;33098;52.400;16.880;2022-07-19T10:48:40;3.20;;;2.60;;
24335;SDS011;33098;52.400;16.880;2022-07-19T10:51:12;5.00;;;2.50;;
24335;SDS011;33098;52.400;16.880;2022-07-19T10:53:54;3.90;;;2.40;;
24335;SDS011;33098;52.400;16.880;2022-07-19T10:56:23;4.80;;;2.30;;
24335;SDS011;33098;52.400;16.880;2022-07-19T10:58:57;4.60;;;3.20;;
24335;SDS011;33098;52.400;16.880;2022-07-19T11:01:27;4.00;;;2.80;;
24335;SDS011;33098;52.400;16.880;2022-07-19T11:04:21;5.00;;;2.40;;
24335;SDS011;33098;52.400;16.880;2022-07-19T11:07:11;2.60;;;2.40;;
24335;SDS011;33098;52.400;16.880;2022-07-19T11:09:46;4.00;;;2.30;;
24335;SDS011;33098;52.400;16.880;2022-07-19T11:14:58;5.30;;;2.50;;
24335;SDS011;33098;52.400;16.880;2022-07-19T11:17:29;4.60;;;2.40;;
24335;SDS011;33098;52.400;16.880;2022-07-19T11:20:17;4.00;;;1.90;;
24335;SDS011;33098;52.400;16.880;2022-07-19T11:22:47;4.20;;;2.40;;
24335;SDS011;33098;52.400;16.880;2022-07-19T11:25:16;3.40;;;2.20;;
24335;SDS011;33098;52.400;16.880;2022-07-19T11:27:49;6.10;;;2.30;;
24335;SDS011;33098;52.400;16.880;2022-07-19T11:30:20;5.10;;;2.40;;
24335;SDS011;33098;52.400;16.880;2022-07-19T11:32:51;4.60;;;2.30;;
24335;SDS011;33098;52.400;16.880;2022-07-19T11:35:23;3.70;;;2.40;;
24335;SDS011;33098;52.400;16.880;2022-07-19T11:37:51;4.40;;;2.30;;
24335;SDS011;33098;52.400;16.880;2022-07-19T11:40:22;3.30;;;2.00;;
24335;SDS011;33098;52.400;16.880;2022-07-19T11:42:51;5.40;;;2.10;;
24335;SDS011;33098;52.400;16.880;2022-07-19T11:45:20;3.20;;;2.30;;
24335;SDS011;33098;52.400;16.880;2022-07-19T11:47:49;3.60;;;2.40;;
24335;SDS011;33098;52.400;16.880;2022-07-19T11:50:18;3.50;;;2.20;;
24335;SDS011;33098;52.400;16.880;2022-07-19T11:52:57;3.40;;;2.70;;
24335;SDS011;33098;52.400;16.880;2022-07-19T11:55:29;3.20;;;2.30;;
24335;SDS011;33098;52.400;16.880;2022-07-19T11:58:05;3.50;;;2.50;;
24335;SDS011;33098;52.400;16.880;2022-07-19T12:00:34;6.10;;;2.50;;
24335;SDS011;33098;52.400;16.880;2022-07-19T12:03:01;10.00;;;2.70;;
24335;SDS011;33098;52.400;16.880;2022-07-19T12:05:31;2.60;;;2.40;;
24335;SDS011;33098;52.400;16.880;2022-07-19T12:08:00;3.30;;;2.80;;
24335;SDS011;33098;52.400;16.880;2022-07-19T12:10:37;7.50;;;2.60;;
24335;SDS011;33098;52.400;16.880;2022-07-19T12:13:05;3.70;;;2.30;;
24335;SDS011;33098;52.400;16.880;2022-07-19T12:15:42;3.30;;;2.70;;
24335;SDS011;33098;52.400;16.880;2022-07-19T12:18:10;4.70;;;3.00;;
24335;SDS011;33098;52.400;16.880;2022-07-19T12:20:38;4.10;;;2.40;;
24335;SDS011;33098;52.400;16.880;2022-07-19T12:23:12;10.50;;;3.30;;
24335;SDS011;33098;52.400;16.880;2022-07-19T12:25:40;7.10;;;2.80;;
24335;SDS011;33098;52.400;16.880;2022-07-19T12:28:06;6.40;;;2.70;;
24335;SDS011;33098;52.400;16.880;2022-07-19T12:30:35;3.60;;;2.40;;
24335;SDS011;33098;52.400;16.880;2022-07-19T12:33:10;7.90;;;3.10;;
24335;SDS011;33098;52.400;16.880;2022-07-19T12:35:44;7.30;;;2.40;;
24335;SDS011;33098;52.400;16.880;2022-07-19T12:38:12;4.30;;;2.40;;
24335;SDS011;33098;52.400;16.880;2022-07-19T12:40:41;5.20;;;2.80;;
24335;SDS011;33098;52.400;16.880;2022-07-19T12:43:09;3.60;;;2.30;;
24335;SDS011;33098;52.400;16.880;2022-07-19T12:45:41;4.00;;;2.60;;
24335;SDS011;33098;52.400;16.880;2022-07-19T12:48:11;3.40;;;2.40;;
24335;SDS011;33098;52.400;16.880;2022-07-19T12:50:46;4.00;;;2.60;;
24335;SDS011;33098;52.400;16.880;2022-07-19T12:53:17;5.70;;;3.30;;
24335;SDS011;33098;52.400;16.880;2022-07-19T12:55:44;5.10;;;3.00;;
24335;SDS011;33098;52.400;16.880;2022-07-19T12:58:12;5.60;;;3.10;;
24335;SDS011;33098;52.400;16.880;2022-07-19T13:00:40;7.40;;;3.60;;
24335;SDS011;33098;52.400;16.880;2022-07-19T13:03:08;4.00;;;2.90;;
24335;SDS011;33098;52.400;16.880;2022-07-19T13:05:35;9.00;;;3.20;;
24335;SDS011;33098;52.400;16.880;2022-07-19T13:08:05;3.90;;;2.80;;
24335;SDS011;33098;52.400;16.880;2022-07-19T13:10:33;4.40;;;2.70;;
24335;SDS011;33098;52.400;16.880;2022-07-19T13:12:59;6.50;;;3.30;;
24335;SDS011;33098;52.400;16.880;2022-07-19T13:15:26;4.20;;;3.10;;
24335;SDS011;33098;52.400;16.880;2022-07-19T13:17:52;4.10;;;2.90;;
24335;SDS011;33098;52.400;16.880;2022-07-19T13:20:19;5.00;;;3.20;;
24335;SDS011;33098;52.400;16.880;2022-07-19T13:22:46;6.80;;;3.30;;
24335;SDS011;33098;52.400;16.880;2022-07-19T13:25:12;6.90;;;3.30;;
24335;SDS011;33098;52.400;16.880;2022-07-19T13:27:39;5.70;;;3.20;;
24335;SDS011;33098;52.400;16.880;2022-07-19T13:30:06;4.20;;;3.30;;
24335;SDS011;33098;52.400;16.880;2022-07-19T13:32:33;4.30;;;3.30;;
24335;SDS011;33098;52.400;16.880;2022-07-19T13:35:00;3.80;;;3.50;;
24335;SDS011;33098;52.400;16.880;2022-07-19T13:37:27;5.30;;;3.50;;
24335;SDS011;33098;52.400;16.880;2022-07-19T13:39:53;4.20;;;3.30;;
24335;SDS011;33098;52.400;16.880;2022-07-19T13:42:20;4.50;;;3.10;;
24335;SDS011;33098;52.400;16.880;2022-07-19T13:44:52;4.80;;;3.10;;
24335;SDS011;33098;52.400;16.880;2022-07-19T13:47:19;6.90;;;3.70;;
24335;SDS011;33098;52.400;16.880;2022-07-19T13:49:45;4.40;;;3.80;;
24335;SDS011;33098;52.400;16.880;2022-07-19T13:52:12;5.50;;;3.80;;
24335;SDS011;33098;52.400;16.880;2022-07-19T13:54:39;6.60;;;4.40;;
24335;SDS011;33098;52.400;16.880;2022-07-19T13:57:07;7.50;;;3.90;;
24335;SDS011;33098;52.400;16.880;2022-07-19T13:59:33;4.80;;;4.20;;
24335;SDS011;33098;52.400;16.880;2022-07-19T14:02:00;5.60;;;4.30;;
24335;SDS011;33098;52.400;16.880;2022-07-19T14:04:29;4.60;;;4.00;;
24335;SDS011;33098;52.400;16.880;2022-07-19T14:06:58;6.80;;;4.30;;
24335;SDS011;33098;52.400;16.880;2022-07-19T14:09:25;4.90;;;4.00;;
24335;SDS011;33098;52.400;16.880;2022-07-19T14:11:54;6.30;;;4.10;;
24335;SDS011;33098;52.400;16.880;2022-07-19T14:14:21;4.30;;;3.90;;
24335;SDS011;33098;52.400;16.880;2022-07-19T14:16:48;3.80;;;3.50;;
24335;SDS011;33098;52.400;16.880;2022-07-19T14:19:14;4.10;;;3.40;;
24335;SDS011;33098;52.400;16.880;2022-07-19T14:21:41;3.90;;;3.50;;
24335;SDS011;33098;52.400;16.880;2022-07-19T14:24:07;5.20;;;3.40;;
24335;SDS011;33098;52.400;16.880;2022-07-19T14:26:35;4.00;;;3.40;;
24335;SDS011;33098;52.400;16.880;2022-07-19T14:29:02;5.70;;;3.40;;
24335;SDS011;33098;52.400;16.880;2022-07-19T14:31:29;7.10;;;3.70;;
24335;SDS011;33098;52.400;16.880;2022-07-19T14:33:56;4.60;;;3.50;;
24335;SDS011;33098;52.400;16.880;2022-07-19T14:36:23;4.00;;;3.60;;
24335;SDS011;33098;52.400;16.880;2022-07-19T14:38:49;4.20;;;3.80;;
24335;SDS011;33098;52.400;16.880;2022-07-19T14:41:16;4.10;;;3.70;;
24335;SDS011;33098;52.400;16.880;2022-07-19T14:43:42;4.20;;;3.80;;
24335;SDS011;33098;52.400;16.880;2022-07-19T14:46:09;4.70;;;3.90;;
24335;SDS011;33098;52.400;16.880;2022-07-19T14:48:35;6.80;;;4.70;;
24335;SDS011;33098;52.400;16.880;2022-07-19T14:51:02;5.10;;;4.50;;
24335;SDS011;33098;52.400;16.880;2022-07-19T14:53:29;5.30;;;4.80;;
24335;SDS011;33098;52.400;16.880;2022-07-19T14:55:55;6.10;;;4.40;;